Time;durP1;ratioP1;P1;durP2;ratioP2;P2;SDS_P1;SDS_P2;PMS_P1;PMS_P2;Temp;Humidity;BMP_temperature;BMP_pressure;BME280_temperature;BME280_humidity;BME280_pressure;Samples;Min_cycle;Max_cycle;Signal;HPM_P1;HPM_P2
2022/03/10 00:02:08;;;;;;;50.53;20.05;;;-2.80;93.30;;;;;;4971669;28;20410;-90
2022/03/10 00:04:37;;;;;;;50.88;20.77;;;-2.80;93.90;;;;;;4970878;28;20051;-89
2022/03/10 00:07:04;;;;;;;44.42;18.30;;;-2.70;95.70;;;;;;4972281;28;20465;-87
2022/03/10 00:09:30;;;;;;;51.08;20.30;;;-2.60;95.20;;;;;;4971441;28;20050;-88
2022/03/10 00:11:56;;;;;;;45.17;19.42;;;-2.60;94.40;;;;;;4970098;28;20041;-88
2022/03/10 00:14:22;;;;;;;46.08;19.90;;;-2.70;94.10;;;;;;4972306;28;20406;-89
2022/03/10 00:16:49;;;;;;;39.28;17.60;;;-2.80;93.70;;;;;;4972201;28;20340;-88
2022/03/10 00:19:16;;;;;;;43.38;18.00;;;-2.80;94.00;;;;;;4970760;28;20031;-89
2022/03/10 00:21:42;;;;;;;48.33;18.90;;;-2.80;94.00;;;;;;4960279;28;20479;-88
2022/03/10 00:24:08;;;;;;;47.10;19.55;;;-2.80;93.20;;;;;;4970760;28;20727;-89
2022/03/10 00:26:33;;;;;;;38.50;17.02;;;-2.70;93.90;;;;;;4972042;28;20140;-90
2022/03/10 00:28:59;;;;;;;40.60;18.27;;;-2.50;94.10;;;;;;4984400;28;20035;-89
2022/03/10 00:31:25;;;;;;;49.25;19.38;;;-2.40;92.90;;;;;;4969206;28;20125;-88
2022/03/10 00:33:51;;;;;;;47.45;18.60;;;-2.50;92.70;;;;;;4971697;28;21128;-88
2022/03/10 00:36:16;;;;;;;41.83;20.13;;;-2.50;93.80;;;;;;4972138;28;20031;-91
2022/03/10 00:38:42;;;;;;;38.65;17.00;;;-2.50;93.40;;;;;;4972000;28;20038;-88
2022/03/10 00:41:11;;;;;;;36.50;16.05;;;-2.60;94.50;;;;;;4972154;28;20031;-88
2022/03/10 00:43:36;;;;;;;47.08;18.05;;;-2.70;95.30;;;;;;4973365;28;20553;-86
2022/03/10 00:46:02;;;;;;;42.80;17.73;;;-2.70;94.50;;;;;;4974981;28;20043;-89
2022/03/10 00:48:28;;;;;;;41.85;19.58;;;-2.60;93.50;;;;;;4974152;28;20038;-87
2022/03/10 00:50:54;;;;;;;43.22;17.50;;;-2.50;93.50;;;;;;4970507;28;20027;-89
2022/03/10 00:53:20;;;;;;;48.78;19.20;;;-2.60;93.30;;;;;;4971569;28;20023;-89
2022/03/10 00:55:45;;;;;;;38.47;17.27;;;-2.70;93.30;;;;;;4970867;28;20027;-87
2022/03/10 00:58:11;;;;;;;39.25;18.08;;;-2.80;93.40;;;;;;4985912;28;20035;-88
2022/03/10 01:00:37;;;;;;;50.20;17.20;;;-2.90;94.60;;;;;;4970841;28;20042;-89
2022/03/10 01:03:04;;;;;;;48.75;18.98;;;-3.00;95.00;;;;;;4970023;28;20058;-88
2022/03/10 01:05:30;;;;;;;35.20;15.80;;;-3.00;94.70;;;;;;4970079;28;20039;-89
2022/03/10 01:07:56;;;;;;;43.65;18.17;;;-3.00;94.50;;;;;;4969887;28;20027;-88
2022/03/10 01:10:21;;;;;;;32.95;15.20;;;-2.90;94.90;;;;;;4971135;28;20042;-87
2022/03/10 01:12:47;;;;;;;43.53;17.40;;;-2.90;94.00;;;;;;4971242;28;20549;-88
2022/03/10 01:15:15;;;;;;;41.83;18.13;;;-2.80;94.00;;;;;;4971376;28;20230;-88
2022/03/10 01:17:41;;;;;;;37.10;16.10;;;-2.80;93.90;;;;;;4971282;28;20489;-91
2022/03/10 01:20:07;;;;;;;36.97;15.45;;;-2.90;94.40;;;;;;4966738;28;20035;-87
2022/03/10 01:22:34;;;;;;;33.20;16.40;;;-3.00;94.00;;;;;;4970961;28;20038;-86
2022/03/10 01:25:00;;;;;;;35.08;13.98;;;-3.00;93.90;;;;;;4969751;28;20493;-88
2022/03/10 01:27:26;;;;;;;45.53;17.05;;;-3.10;94.50;;;;;;4969841;28;20031;-88
2022/03/10 01:29:51;;;;;;;44.67;18.33;;;-3.10;94.90;;;;;;4986294;28;20039;-88
2022/03/10 01:32:17;;;;;;;33.75;16.67;;;-3.00;95.00;;;;;;4952214;28;20031;-85
2022/03/10 01:34:43;;;;;;;37.85;16.27;;;-2.90;94.60;;;;;;4969676;28;20023;-88
2022/03/10 01:37:09;;;;;;;36.70;15.93;;;-3.10;94.30;;;;;;4985916;28;20114;-89
2022/03/10 01:39:34;;;;;;;37.95;17.45;;;-3.20;93.90;;;;;;4964138;28;20028;-88
2022/03/10 01:42:00;;;;;;;48.85;16.67;;;-3.30;95.00;;;;;;4985775;28;20114;-88
2022/03/10 01:44:28;;;;;;;40.55;16.05;;;-3.30;95.10;;;;;;4970887;28;20055;-89
2022/03/10 01:46:54;;;;;;;33.35;14.98;;;-3.30;95.90;;;;;;4968852;28;20486;-89
2022/03/10 01:49:19;;;;;;;37.47;15.90;;;-3.40;95.10;;;;;;4971036;28;20039;-88
2022/03/10 01:51:46;;;;;;;35.20;14.63;;;-3.20;96.00;;;;;;4970799;28;20039;-91
2022/03/10 01:54:12;;;;;;;43.15;17.08;;;-3.00;95.20;;;;;;4971032;28;20058;-86
2022/03/10 01:56:39;;;;;;;36.13;14.40;;;-2.90;95.00;;;;;;4969019;28;20042;-87
2022/03/10 01:59:05;;;;;;;33.80;14.13;;;-2.90;94.60;;;;;;4970215;28;20031;-90
2022/03/10 02:01:31;;;;;;;37.55;15.82;;;-3.10;95.10;;;;;;4969085;28;20045;-89
2022/03/10 02:03:57;;;;;;;38.05;15.02;;;-3.20;95.70;;;;;;4953462;28;20142;-87
2022/03/10 02:06:25;;;;;;;28.00;13.90;;;-3.20;96.20;;;;;;4970844;28;20098;-89
2022/03/10 02:11:37;;;;;;;30.50;15.20;;;-3.30;95.70;;;;;;4973409;28;20057;-90
2022/03/10 02:17:19;;;;;;;31.33;14.40;;;-3.20;96.40;;;;;;4973893;28;20043;-89
2022/03/10 02:19:32;;;;;;;29.77;12.18;;;-3.30;95.60;;;;;;4973746;28;20045;-89
2022/03/10 02:22:07;;;;;;;39.25;14.13;;;-3.30;95.10;;;;;;4973401;28;20035;-88
2022/03/10 02:24:35;;;;;;;33.67;12.85;;;-3.40;96.10;;;;;;4973604;28;20054;-88
2022/03/10 02:27:21;;;;;;;30.42;12.13;;;-3.40;95.80;;;;;;4973567;28;20130;-88
2022/03/10 02:29:53;;;;;;;31.15;13.38;;;-3.40;95.40;;;;;;4969749;28;20149;-89
2022/03/10 02:32:20;;;;;;;34.85;13.80;;;-3.30;95.50;;;;;;4955972;28;20479;-89
2022/03/10 02:34:47;;;;;;;35.75;13.80;;;-3.30;95.10;;;;;;4972590;28;20475;-87
2022/03/10 02:37:13;;;;;;;34.40;13.95;;;-3.30;94.10;;;;;;4967967;28;20089;-91
2022/03/10 02:39:40;;;;;;;36.88;15.15;;;-3.40;93.50;;;;;;4972438;28;20031;-89
2022/03/10 02:42:07;;;;;;;31.67;12.27;;;-3.50;94.70;;;;;;4973211;28;20110;-88
2022/03/10 02:44:33;;;;;;;27.27;13.18;;;-3.60;95.40;;;;;;4973275;28;20035;-87
2022/03/10 02:46:59;;;;;;;27.98;12.10;;;-3.70;94.60;;;;;;4971905;28;20045;-88
2022/03/10 02:49:24;;;;;;;29.20;11.98;;;-3.70;94.40;;;;;;4955677;28;20878;-88
2022/03/10 02:51:50;;;;;;;31.85;13.90;;;-3.80;94.40;;;;;;4964853;28;20501;-88
2022/03/10 02:54:17;;;;;;;35.00;13.65;;;-3.80;95.40;;;;;;4973152;28;20027;-89
2022/03/10 02:56:43;;;;;;;37.25;14.85;;;-3.70;95.80;;;;;;4973086;28;20081;-86
2022/03/10 02:59:10;;;;;;;33.67;14.43;;;-3.80;95.40;;;;;;4973866;28;20667;-88
2022/03/10 03:01:36;;;;;;;32.05;13.70;;;-3.80;95.90;;;;;;4972307;28;20061;-88
2022/03/10 03:04:01;;;;;;;32.45;13.00;;;-3.70;97.50;;;;;;4987401;28;20051;-88
2022/03/10 03:06:27;;;;;;;35.30;14.73;;;-3.70;96.80;;;;;;4973656;28;20039;-85
2022/03/10 03:08:53;;;;;;;37.10;15.23;;;-3.80;97.10;;;;;;4973038;28;20027;-88
2022/03/10 03:11:18;;;;;;;36.70;13.65;;;-3.80;97.40;;;;;;4972797;28;20370;-86
2022/03/10 03:13:44;;;;;;;34.83;13.88;;;-3.80;98.30;;;;;;4971483;28;20041;-88
2022/03/10 03:16:10;;;;;;;31.75;15.75;;;-3.60;98.30;;;;;;4956664;28;20062;-90
2022/03/10 03:18:35;;;;;;;34.17;14.50;;;-3.60;97.30;;;;;;4972443;28;20387;-88
2022/03/10 03:21:01;;;;;;;35.88;17.00;;;-3.60;97.40;;;;;;4971244;28;20034;-88
2022/03/10 03:23:27;;;;;;;36.47;14.77;;;-3.60;96.70;;;;;;4972406;28;20070;-88
2022/03/10 03:25:53;;;;;;;35.58;15.35;;;-3.70;97.30;;;;;;4985947;28;20038;-86
2022/03/10 03:28:21;;;;;;;31.92;13.45;;;-3.80;97.20;;;;;;4971108;28;20386;-89
2022/03/10 03:30:47;;;;;;;32.80;13.18;;;-3.90;97.90;;;;;;4971864;28;20042;-88
2022/03/10 03:33:13;;;;;;;27.58;12.88;;;-4.00;97.90;;;;;;4970912;28;20074;-89
2022/03/10 03:35:39;;;;;;;29.05;13.18;;;-4.00;98.40;;;;;;4962953;28;20062;-89
2022/03/10 03:38:05;;;;;;;27.77;12.85;;;-3.90;99.20;;;;;;4953587;28;20034;-88
2022/03/10 03:40:30;;;;;;;29.67;11.77;;;-3.80;98.60;;;;;;4972693;28;20090;-88
2022/03/10 03:42:56;;;;;;;28.60;12.68;;;-3.80;98.80;;;;;;4954865;28;20094;-88
2022/03/10 03:45:22;;;;;;;28.23;12.00;;;-3.80;98.20;;;;;;4972034;28;20046;-89
2022/03/10 03:47:48;;;;;;;32.72;14.88;;;-3.80;98.70;;;;;;4971628;28;20054;-89
2022/03/10 03:50:14;;;;;;;29.65;13.98;;;-3.80;98.30;;;;;;4971176;28;20430;-87
2022/03/10 03:52:39;;;;;;;31.05;12.40;;;-3.90;98.30;;;;;;4970936;28;20039;-88
2022/03/10 03:55:06;;;;;;;35.92;14.95;;;-3.90;98.10;;;;;;4971504;28;20418;-86
2022/03/10 03:57:31;;;;;;;26.42;12.70;;;-3.90;97.50;;;;;;4970328;28;20038;-88
2022/03/10 03:59:57;;;;;;;34.25;15.32;;;-3.90;97.40;;;;;;4986643;28;20102;-88
2022/03/10 04:02:22;;;;;;;29.70;13.25;;;-3.70;98.40;;;;;;4971432;28;20027;-88
2022/03/10 04:04:48;;;;;;;32.67;12.93;;;-3.70;97.00;;;;;;4971829;28;20038;-85
2022/03/10 04:07:14;;;;;;;30.38;13.32;;;-3.80;96.90;;;;;;4974275;28;20039;-88
2022/03/10 04:09:40;;;;;;;31.48;14.07;;;-4.00;98.10;;;;;;4975257;28;20147;-89
2022/03/10 04:12:06;;;;;;;30.90;12.85;;;-4.00;98.00;;;;;;4971505;28;20803;-88
2022/03/10 04:14:32;;;;;;;29.33;12.27;;;-4.00;98.70;;;;;;4970011;28;20027;-87
2022/03/10 04:16:57;;;;;;;29.63;15.30;;;-4.10;98.40;;;;;;4971724;28;20111;-88
2022/03/10 04:19:23;;;;;;;33.78;14.50;;;-4.10;98.20;;;;;;4970409;28;20046;-86
2022/03/10 04:21:49;;;;;;;27.48;12.82;;;-3.90;98.70;;;;;;4986914;28;20036;-86
2022/03/10 04:24:14;;;;;;;36.83;15.23;;;-4.00;97.70;;;;;;4970434;28;20740;-87
2022/03/10 04:26:40;;;;;;;34.05;14.55;;;-4.00;98.90;;;;;;4968915;28;20047;-88
2022/03/10 04:29:06;;;;;;;32.53;13.45;;;-4.10;99.10;;;;;;4970773;28;20082;-87
2022/03/10 04:31:32;;;;;;;33.42;15.30;;;-4.20;99.90;;;;;;4971131;28;20110;-87
2022/03/10 04:33:57;;;;;;;29.13;13.98;;;-4.20;99.40;;;;;;4954926;28;20482;-87
2022/03/10 04:36:23;;;;;;;26.63;12.27;;;-4.30;99.10;;;;;;4954677;28;20185;-89
2022/03/10 04:38:50;;;;;;;37.88;15.75;;;-4.40;98.40;;;;;;4950941;29;20035;-87
2022/03/10 04:41:16;;;;;;;30.75;16.48;;;-4.40;99.20;;;;;;4952045;28;20312;-87
2022/03/10 04:43:41;;;;;;;39.08;16.73;;;-4.20;99.90;;;;;;4939405;28;20082;-87
2022/03/10 04:46:07;;;;;;;41.85;18.77;;;-4.30;99.80;;;;;;4954312;28;20038;-88
2022/03/10 04:48:33;;;;;;;41.47;17.38;;;-4.30;99.90;;;;;;4970491;28;20019;-89
2022/03/10 04:50:58;;;;;;;41.90;19.02;;;-4.50;99.90;;;;;;4969689;28;20035;-87
2022/03/10 04:53:24;;;;;;;49.88;17.77;;;-4.50;99.90;;;;;;4986440;28;20214;-87
2022/03/10 04:55:50;;;;;;;48.75;19.13;;;-4.60;99.90;;;;;;4970402;28;20038;-87
2022/03/10 04:58:16;;;;;;;43.92;16.77;;;-4.70;99.90;;;;;;4969443;28;20545;-86
2022/03/10 05:00:41;;;;;;;42.28;16.50;;;-4.60;99.90;;;;;;4970765;28;20130;-87
2022/03/10 05:03:07;;;;;;;37.67;17.90;;;-4.70;99.90;;;;;;4970435;28;20109;-87
2022/03/10 05:05:33;;;;;;;50.50;18.38;;;-4.70;99.90;;;;;;4970256;28;20029;-87
2022/03/10 05:07:58;;;;;;;46.50;17.10;;;-4.80;99.90;;;;;;4953841;28;20050;-88
2022/03/10 05:10:24;;;;;;;41.33;16.63;;;-4.80;99.90;;;;;;4969941;28;20031;-89
2022/03/10 05:12:52;;;;;;;50.67;20.33;;;-4.80;99.90;;;;;;4953792;28;20037;-87
2022/03/10 05:15:20;;;;;;;51.05;19.52;;;-4.70;99.90;;;;;;4970107;28;20103;-90
2022/03/10 05:17:46;;;;;;;40.75;18.50;;;-4.60;99.90;;;;;;4969362;28;20034;-88
2022/03/10 05:20:13;;;;;;;34.53;15.63;;;-4.60;99.90;;;;;;4971558;28;20039;-88
2022/03/10 05:22:47;;;;;;;38.42;15.98;;;-4.60;99.90;;;;;;4984429;28;20027;-88
2022/03/10 05:25:14;;;;;;;39.05;13.80;;;-4.70;99.90;;;;;;4966900;28;20031;-88
2022/03/10 05:27:41;;;;;;;41.20;16.30;;;-4.70;99.90;;;;;;4964440;28;20027;-87
2022/03/10 05:30:07;;;;;;;41.00;16.27;;;-4.80;99.90;;;;;;4954346;28;20114;-82
2022/03/10 05:32:33;;;;;;;54.72;17.90;;;-5.00;99.90;;;;;;4972805;28;20027;-82
2022/03/10 05:35:00;;;;;;;48.28;19.73;;;-4.90;99.90;;;;;;4985247;28;20043;-87
2022/03/10 05:37:26;;;;;;;42.30;18.45;;;-4.80;99.90;;;;;;4972246;28;20037;-89
2022/03/10 05:39:52;;;;;;;41.47;15.73;;;-4.80;99.90;;;;;;4969289;28;20556;-87
2022/03/10 05:42:18;;;;;;;47.65;17.92;;;-4.90;99.90;;;;;;4972289;28;20126;-87
2022/03/10 05:44:44;;;;;;;44.78;16.05;;;-4.90;99.90;;;;;;4984564;28;20035;-88
2022/03/10 05:47:10;;;;;;;42.40;17.92;;;-4.90;99.90;;;;;;4954007;29;20059;-89
2022/03/10 05:49:36;;;;;;;46.25;18.88;;;-4.90;99.90;;;;;;4955674;28;20046;-87
2022/03/10 05:52:02;;;;;;;40.03;17.13;;;-4.90;99.90;;;;;;4974400;28;20082;-86
2022/03/10 05:54:28;;;;;;;44.05;18.88;;;-4.80;99.90;;;;;;4972777;28;20031;-90
2022/03/10 05:56:53;;;;;;;42.80;18.35;;;-4.80;99.90;;;;;;4967918;28;20078;-88
2022/03/10 05:59:19;;;;;;;46.35;17.65;;;-4.70;99.90;;;;;;4955694;28;20043;-88
2022/03/10 06:01:46;;;;;;;42.97;17.45;;;-4.70;99.90;;;;;;4953200;28;20035;-87
2022/03/10 06:04:12;;;;;;;48.30;20.13;;;-4.60;99.90;;;;;;4969912;28;20055;-87
2022/03/10 06:06:37;;;;;;;51.95;18.02;;;-4.60;99.90;;;;;;4956172;28;20093;-87
2022/03/10 06:09:03;;;;;;;45.55;17.95;;;-4.50;99.90;;;;;;4988698;28;20039;-86
2022/03/10 06:11:29;;;;;;;37.90;16.40;;;-4.50;99.90;;;;;;4972452;28;20031;-87
2022/03/10 06:13:55;;;;;;;43.95;17.30;;;-4.40;99.90;;;;;;4972160;28;20594;-89
2022/03/10 06:16:21;;;;;;;36.72;17.23;;;-4.30;99.90;;;;;;4951844;28;20049;-86
2022/03/10 06:18:47;;;;;;;40.83;16.30;;;-4.20;99.90;;;;;;4969225;28;20391;-88
2022/03/10 06:21:13;;;;;;;44.78;16.30;;;-4.20;99.90;;;;;;4971562;28;20023;-88
2022/03/10 06:23:39;;;;;;;38.65;16.85;;;-4.20;99.90;;;;;;4961157;28;20545;-88
2022/03/10 06:26:04;;;;;;;34.65;15.90;;;-4.10;99.90;;;;;;4973447;28;20034;-88
2022/03/10 06:28:31;;;;;;;42.53;15.48;;;-4.00;99.90;;;;;;4939556;28;20427;-87
2022/03/10 06:30:56;;;;;;;37.60;16.30;;;-3.80;99.90;;;;;;4972463;28;20039;-89
2022/03/10 06:33:22;;;;;;;39.53;17.00;;;-3.60;99.90;;;;;;4986430;28;20033;-87
2022/03/10 06:35:48;;;;;;;38.65;16.67;;;-3.40;99.90;;;;;;4973547;28;20031;-87
2022/03/10 06:38:13;;;;;;;35.78;15.73;;;-3.30;99.90;;;;;;4972272;28;20088;-85
2022/03/10 06:40:39;;;;;;;45.95;18.48;;;-3.20;99.90;;;;;;4957323;28;20268;-88
2022/03/10 06:43:05;;;;;;;42.20;16.70;;;-2.90;99.90;;;;;;4973773;28;20501;-86
2022/03/10 06:45:31;;;;;;;35.58;15.45;;;-2.90;99.90;;;;;;4973402;28;20482;-88
2022/03/10 06:47:58;;;;;;;38.35;15.85;;;-2.90;99.50;;;;;;4964725;28;20098;-87
2022/03/10 06:50:24;;;;;;;38.78;16.25;;;-2.70;98.80;;;;;;4971320;28;20027;-88
2022/03/10 06:52:51;;;;;;;41.38;16.55;;;-2.60;99.10;;;;;;4972530;28;20054;-89
2022/03/10 06:55:19;;;;;;;38.72;16.17;;;-2.70;98.40;;;;;;4973163;28;20038;-87
2022/03/10 06:57:46;;;;;;;30.20;14.65;;;-2.60;98.10;;;;;;4986808;28;20129;-89
2022/03/10 07:00:12;;;;;;;39.53;15.77;;;-2.40;97.30;;;;;;4967327;28;20508;-89
2022/03/10 07:02:37;;;;;;;34.08;16.10;;;-2.30;97.00;;;;;;4964928;28;20101;-88
2022/03/10 07:05:04;;;;;;;28.85;13.65;;;-2.20;96.70;;;;;;4972940;28;20072;-89
2022/03/10 07:07:29;;;;;;;31.33;15.23;;;-2.10;96.50;;;;;;4972744;28;20059;-88
2022/03/10 07:09:55;;;;;;;38.90;15.85;;;-2.00;97.10;;;;;;4968717;28;20727;-89
2022/03/10 07:12:20;;;;;;;33.50;15.63;;;-1.90;96.90;;;;;;4970426;28;20489;-89
2022/03/10 07:14:46;;;;;;;37.42;15.93;;;-1.90;96.40;;;;;;4972033;28;20395;-88
2022/03/10 07:17:12;;;;;;;41.10;16.80;;;-1.90;96.70;;;;;;4972138;28;20066;-88
2022/03/10 07:19:37;;;;;;;38.10;15.63;;;-1.80;96.70;;;;;;4955736;28;20126;-89
2022/03/10 07:22:03;;;;;;;33.22;15.15;;;-1.70;96.90;;;;;;4969800;28;20035;-89
2022/03/10 07:24:30;;;;;;;40.05;16.85;;;-1.60;96.90;;;;;;4970977;28;20027;-91
2022/03/10 07:26:56;;;;;;;41.95;17.50;;;-1.50;96.70;;;;;;4970902;28;20525;-89
2022/03/10 07:29:22;;;;;;;37.67;15.77;;;-1.40;96.70;;;;;;4972378;28;20027;-87
2022/03/10 07:31:47;;;;;;;37.53;16.67;;;-1.40;96.10;;;;;;4972871;28;20057;-87
2022/03/10 07:34:13;;;;;;;33.15;15.13;;;-1.50;95.80;;;;;;4975138;28;20475;-87
2022/03/10 07:36:40;;;;;;;41.88;17.90;;;-1.40;95.40;;;;;;4989640;28;20031;-89
2022/03/10 07:39:06;;;;;;;37.85;16.65;;;-1.30;96.20;;;;;;4970856;28;20085;-87
2022/03/10 07:41:32;;;;;;;39.03;17.05;;;-1.20;96.50;;;;;;4972142;28;20038;-90
2022/03/10 07:43:57;;;;;;;49.00;18.75;;;-1.00;95.80;;;;;;4972010;28;20069;-90
2022/03/10 07:46:23;;;;;;;38.72;16.63;;;-0.90;95.70;;;;;;4970498;28;20109;-87
2022/03/10 07:48:50;;;;;;;35.63;16.27;;;-0.80;95.10;;;;;;4969659;28;20031;-88
2022/03/10 07:51:17;;;;;;;40.67;17.55;;;-0.70;95.00;;;;;;4970922;28;20027;-89
2022/03/10 07:53:42;;;;;;;42.22;18.40;;;-0.70;93.90;;;;;;4958167;28;20736;-89
2022/03/10 07:56:08;;;;;;;44.55;17.75;;;-0.60;94.10;;;;;;4971911;28;20154;-90
2022/03/10 07:58:34;;;;;;;49.25;17.85;;;-0.50;93.60;;;;;;4970553;28;20081;-89
2022/03/10 08:00:59;;;;;;;38.65;16.98;;;-0.30;93.60;;;;;;4961125;28;20129;-89
2022/03/10 08:03:25;;;;;;;34.90;15.65;;;-0.20;92.50;;;;;;4966990;28;20158;-86
2022/03/10 08:05:51;;;;;;;40.38;17.88;;;-0.10;92.30;;;;;;4971011;28;20039;-87
2022/03/10 08:08:17;;;;;;;34.78;15.60;;;0.00;92.40;;;;;;4970240;28;20126;-88
2022/03/10 08:10:43;;;;;;;39.38;17.10;;;0.20;91.50;;;;;;4970773;28;20649;-91
2022/03/10 08:13:09;;;;;;;39.60;15.77;;;0.30;91.10;;;;;;4969655;28;20027;-88
2022/03/10 08:15:34;;;;;;;37.28;19.40;;;0.40;90.50;;;;;;4985709;28;20153;-88
2022/03/10 08:18:00;;;;;;;31.48;13.48;;;0.50;90.00;;;;;;4967265;28;20033;-89
2022/03/10 08:20:26;;;;;;;41.03;19.80;;;0.50;90.10;;;;;;4970651;28;20035;-89
2022/03/10 08:22:51;;;;;;;39.30;18.10;;;0.50;90.90;;;;;;4970800;28;20394;-90
2022/03/10 08:25:20;;;;;;;31.67;14.20;;;0.50;88.60;;;;;;4968979;28;20375;-88
2022/03/10 08:27:47;;;;;;;36.22;15.85;;;0.60;88.10;;;;;;4968994;28;20035;-87
2022/03/10 08:30:14;;;;;;;34.00;15.23;;;0.80;87.90;;;;;;4970862;28;20023;-89
2022/03/10 08:32:42;;;;;;;42.67;17.40;;;0.90;88.10;;;;;;4970382;28;20054;-89
2022/03/10 08:35:08;;;;;;;36.72;15.07;;;1.00;87.40;;;;;;4966193;28;20027;-88
2022/03/10 08:37:34;;;;;;;35.65;16.23;;;1.20;86.50;;;;;;4983781;28;20043;-88
2022/03/10 08:40:00;;;;;;;31.65;15.40;;;1.30;85.10;;;;;;4969602;28;20509;-88
2022/03/10 08:42:25;;;;;;;34.70;16.40;;;1.40;87.40;;;;;;4952530;28;20077;-88
2022/03/10 08:44:51;;;;;;;31.55;15.93;;;1.30;85.10;;;;;;4969048;28;20081;-86
2022/03/10 08:47:17;;;;;;;31.23;14.02;;;1.30;84.50;;;;;;4968368;28;20042;-86
2022/03/10 08:49:42;;;;;;;32.38;16.10;;;1.40;85.60;;;;;;4966314;28;20068;-88
2022/03/10 08:52:08;;;;;;;31.50;16.17;;;1.60;85.20;;;;;;4967482;28;20450;-88
2022/03/10 08:54:34;;;;;;;34.63;14.85;;;1.70;84.40;;;;;;4965464;28;20482;-88
2022/03/10 08:56:59;;;;;;;35.28;16.60;;;2.00;83.60;;;;;;4966578;28;20034;-90
2022/03/10 08:59:25;;;;;;;32.65;15.27;;;2.20;82.60;;;;;;4968710;28;20078;-86
2022/03/10 09:01:50;;;;;;;31.63;14.80;;;2.30;81.70;;;;;;4959660;28;20398;-87
2022/03/10 09:04:16;;;;;;;45.55;19.15;;;2.60;81.90;;;;;;4970014;28;20438;-88
2022/03/10 09:06:42;;;;;;;31.15;15.43;;;2.60;79.30;;;;;;4969173;28;20046;-87
2022/03/10 09:09:07;;;;;;;30.10;14.23;;;2.60;79.30;;;;;;4967874;28;20399;-86
2022/03/10 09:11:33;;;;;;;34.40;15.95;;;3.00;77.00;;;;;;4963285;28;20035;-85
2022/03/10 09:13:59;;;;;;;36.97;15.27;;;3.20;76.70;;;;;;4969501;28;20031;-86
2022/03/10 09:16:25;;;;;;;31.70;15.63;;;3.30;73.80;;;;;;4969664;28;20383;-85
2022/03/10 09:18:51;;;;;;;34.42;15.02;;;3.30;73.00;;;;;;4973751;28;20023;-86
2022/03/10 09:21:17;;;;;;;37.50;16.52;;;3.40;72.10;;;;;;4972059;28;20041;-89
2022/03/10 09:23:43;;;;;;;26.05;14.70;;;3.50;73.90;;;;;;4969311;28;20485;-86
2022/03/10 09:26:09;;;;;;;39.13;16.73;;;3.60;74.10;;;;;;4971686;28;20050;-87
2022/03/10 09:28:36;;;;;;;29.27;12.98;;;3.60;73.00;;;;;;4973027;28;20137;-85
2022/03/10 09:31:01;;;;;;;34.17;15.82;;;3.70;73.70;;;;;;4968917;28;20042;-88
2022/03/10 09:33:28;;;;;;;32.35;16.10;;;4.00;71.60;;;;;;4969413;28;20031;-87
2022/03/10 09:35:53;;;;;;;40.40;18.63;;;4.20;70.60;;;;;;4968130;28;20031;-89
2022/03/10 09:38:19;;;;;;;31.55;15.70;;;4.50;69.60;;;;;;4970162;28;20077;-87
2022/03/10 09:40:53;;;;;;;34.40;15.45;;;4.70;69.10;;;;;;4971640;28;20057;-87
2022/03/10 09:43:22;;;;;;;31.45;15.18;;;4.80;67.60;;;;;;4972134;28;20038;-87
2022/03/10 09:45:49;;;;;;;33.70;16.02;;;5.00;67.50;;;;;;4973281;28;20065;-87
2022/03/10 09:48:16;;;;;;;33.25;15.98;;;4.90;66.30;;;;;;4969739;28;20030;-87
2022/03/10 09:50:41;;;;;;;38.88;18.50;;;5.10;66.60;;;;;;4972612;28;20027;-87
2022/03/10 09:53:08;;;;;;;29.63;15.90;;;5.40;65.80;;;;;;4967580;28;20465;-87
2022/03/10 09:55:33;;;;;;;34.50;16.70;;;5.70;64.70;;;;;;4972449;28;20084;-88
2022/03/10 09:58:01;;;;;;;29.20;15.32;;;5.90;64.20;;;;;;4971101;28;20113;-88
2022/03/10 10:00:28;;;;;;;35.42;15.60;;;6.10;62.10;;;;;;4970249;28;20055;-87
2022/03/10 10:02:55;;;;;;;28.17;14.27;;;6.20;62.10;;;;;;4972453;28;20352;-87
2022/03/10 10:05:22;;;;;;;29.25;16.05;;;6.20;60.60;;;;;;4972921;28;20125;-86
2022/03/10 10:08:09;;;;;;;25.13;13.75;;;6.20;60.40;;;;;;4972079;28;20046;-86
2022/03/10 10:10:36;;;;;;;24.27;13.63;;;6.30;61.30;;;;;;4970953;28;20046;-87
2022/03/10 10:13:06;;;;;;;35.35;13.25;;;6.60;59.90;;;;;;4967557;28;20041;-84
2022/03/10 10:15:36;;;;;;;21.67;12.25;;;6.80;59.80;;;;;;4972257;28;20094;-86
2022/03/10 10:18:02;;;;;;;22.25;11.20;;;7.00;56.60;;;;;;4968976;28;20026;-86
2022/03/10 10:20:47;;;;;;;26.20;11.55;;;7.30;56.10;;;;;;4967868;28;20249;-86
2022/03/10 10:23:16;;;;;;;23.60;12.60;;;7.40;55.30;;;;;;4970050;28;20035;-86
2022/03/10 10:26:02;;;;;;;24.88;11.90;;;7.60;54.30;;;;;;4968854;28;20031;-87
2022/03/10 10:28:31;;;;;;;20.58;10.50;;;8.00;53.40;;;;;;4965080;28;20066;-84
2022/03/10 10:30:58;;;;;;;22.15;8.93;;;7.90;52.20;;;;;;4969643;28;20440;-86
2022/03/10 10:33:25;;;;;;;22.40;11.48;;;8.00;50.00;;;;;;4968684;28;20491;-85
2022/03/10 10:36:10;;;;;;;20.38;9.02;;;8.30;49.30;;;;;;4969629;28;20043;-85
2022/03/10 10:38:36;;;;;;;19.75;8.98;;;8.50;48.10;;;;;;4968731;28;20038;-83
2022/03/10 10:41:23;;;;;;;17.15;8.18;;;8.80;48.30;;;;;;4971585;28;20039;-83
2022/03/10 10:43:54;;;;;;;17.83;8.45;;;9.10;48.30;;;;;;4970313;28;20046;-84
2022/03/10 10:46:22;;;;;;;13.75;7.75;;;9.30;46.80;;;;;;4969181;28;20031;-84
2022/03/10 10:48:48;;;;;;;12.35;7.05;;;9.30;45.10;;;;;;4967561;28;20027;-85
2022/03/10 10:51:14;;;;;;;10.60;6.22;;;9.30;44.40;;;;;;4966322;28;20031;-84
2022/03/10 10:53:40;;;;;;;10.80;5.95;;;9.40;42.90;;;;;;4968856;28;20053;-85
2022/03/10 10:56:06;;;;;;;13.73;7.35;;;9.70;42.90;;;;;;4970675;28;20070;-85
2022/03/10 10:58:32;;;;;;;13.85;6.85;;;10.20;42.20;;;;;;4967314;28;20438;-84
2022/03/10 11:00:58;;;;;;;14.45;7.43;;;10.60;40.10;;;;;;4974357;28;20046;-82
2022/03/10 11:03:36;;;;;;;11.88;6.95;;;10.60;39.50;;;;;;4978034;28;20050;-87
2022/03/10 11:06:02;;;;;;;11.93;7.00;;;10.80;38.90;;;;;;4965357;28;20371;-85
2022/03/10 11:08:28;;;;;;;14.40;7.18;;;11.30;39.10;;;;;;4971018;28;20462;-84
2022/03/10 11:10:54;;;;;;;14.23;6.72;;;11.60;37.20;;;;;;4966120;28;20045;-84
2022/03/10 11:13:21;;;;;;;15.80;7.32;;;11.70;37.30;;;;;;4967193;28;20027;-85
2022/03/10 11:15:47;;;;;;;9.95;5.65;;;11.90;35.80;;;;;;4967915;28;20245;-85
2022/03/10 11:18:14;;;;;;;10.50;6.55;;;11.90;35.60;;;;;;4971025;28;20747;-84
2022/03/10 11:20:44;;;;;;;8.95;5.13;;;12.20;36.10;;;;;;4966760;28;20110;-83
2022/03/10 11:23:37;;;;;;;9.05;5.35;;;12.50;34.00;;;;;;4968095;28;20039;-84
2022/03/10 11:26:10;;;;;;;7.88;4.00;;;13.10;35.10;;;;;;4969840;28;20046;-83
2022/03/10 11:28:43;;;;;;;7.47;4.43;;;13.50;32.20;;;;;;4969284;28;20050;-82
2022/03/10 11:31:10;;;;;;;8.27;4.78;;;13.30;32.00;;;;;;4966443;28;20035;-82
2022/03/10 11:33:40;;;;;;;8.32;4.53;;;13.00;32.30;;;;;;4968378;28;20114;-82
2022/03/10 11:36:25;;;;;;;8.25;4.32;;;12.70;32.40;;;;;;4976282;28;20045;-82
2022/03/10 11:39:02;;;;;;;8.63;4.43;;;12.30;33.30;;;;;;4963658;28;20088;-82
2022/03/10 11:41:41;;;;;;;6.40;3.97;;;12.40;32.80;;;;;;4960164;28;20038;-83
2022/03/10 11:44:07;;;;;;;7.00;3.33;;;12.60;32.10;;;;;;4970590;28;20038;-82
2022/03/10 11:46:33;;;;;;;7.43;3.63;;;13.20;31.30;;;;;;4964998;28;20031;-81
2022/03/10 11:49:07;;;;;;;6.82;4.35;;;14.00;30.50;;;;;;4970282;28;20019;-82
2022/03/10 11:51:43;;;;;;;6.65;3.88;;;14.90;28.90;;;;;;4967169;28;20023;-80
2022/03/10 11:54:11;;;;;;;10.65;4.05;;;15.70;28.00;;;;;;4965011;28;20046;-81
2022/03/10 11:56:43;;;;;;;8.57;3.45;;;16.20;26.50;;;;;;4966865;28;20074;-78
2022/03/10 11:59:37;;;;;;;7.95;4.93;;;16.20;27.30;;;;;;4969748;28;20062;-80
2022/03/10 12:02:04;;;;;;;8.52;4.25;;;15.70;27.60;;;;;;4967314;28;20035;-80
2022/03/10 12:04:40;;;;;;;9.20;4.60;;;15.20;28.10;;;;;;4967746;28;20043;-80
2022/03/10 12:07:14;;;;;;;7.95;3.92;;;15.00;27.70;;;;;;4962322;28;20051;-80
2022/03/10 12:09:41;;;;;;;7.57;3.60;;;15.70;26.80;;;;;;4967177;28;20019;-80
2022/03/10 12:12:18;;;;;;;8.80;4.40;;;15.70;26.70;;;;;;4965035;28;20135;-81
2022/03/10 12:14:44;;;;;;;8.27;4.72;;;16.00;27.30;;;;;;4965132;28;20073;-80
2022/03/10 12:17:55;;;;;;;9.00;4.60;;;16.00;26.10;;;;;;4968774;28;20117;-80
2022/03/10 12:20:25;;;;;;;6.63;4.53;;;16.00;25.50;;;;;;4968171;28;20038;-82
2022/03/10 12:23:03;;;;;;;7.72;4.30;;;15.70;26.00;;;;;;4979708;28;20031;-82
2022/03/10 12:25:40;;;;;;;8.35;5.10;;;15.80;25.80;;;;;;4971502;28;20461;-81
2022/03/10 12:28:06;;;;;;;8.40;4.43;;;15.40;26.30;;;;;;4978290;28;20480;-81
2022/03/10 12:30:37;;;;;;;9.23;5.30;;;15.10;27.00;;;;;;4958341;28;20027;-81
2022/03/10 12:33:03;;;;;;;8.23;4.25;;;15.70;27.60;;;;;;4963581;28;20313;-80
2022/03/10 12:35:36;;;;;;;7.50;4.05;;;16.40;25.30;;;;;;4966551;28;20110;-80
2022/03/10 12:38:03;;;;;;;6.85;4.35;;;16.50;25.20;;;;;;4967350;28;20457;-80